Aérodrome :
LOGIN :

S'inscrire | Disclaimer

   EN    FR    IT 

 










Légende :    VFR   VFR Marginal   IFR   IFR Intensif   IFR Très Intensif
Visi : 
Plafond : 
>= 8 km
>= 3000ft
5 à 8 km
1000 à 3000 ft
1500m à 5 km
500 à 1000 ft
800 à 1500m
200 à 500 ft
< 800m
< 200 ft
Symboles :   Orages  Brouillard  Fortes neiges  Fortes précipitations  Vent > 20 kt
SIGMETs :   Divers  Orages  Givrage  Turbulence  Onde Orograph.  Cendres Volcan.






- Altitude de l'aérodrome : 364 ft
- Code IATA : FRA


EDDF - Frankfurt Int.

DERNIER METAR :
  • 030920Z VRB03KT 9999 FEW050CB 24/10 Q1006 NOSIG

METARs EXPIRÉS :
  • 030850Z 06003KT 310V120 9999 FEW050CB 23/10 Q1006 NOSIG
  • 030820Z VRB03KT 9999 FEW048 23/10 Q1006 NOSIG
  • 030750Z VRB02KT 9999 FEW048 22/10 Q1006 NOSIG
  • 030720Z VRB02KT 9999 FEW040 22/10 Q1007 NOSIG
  • 030650Z VRB02KT 9999 FEW030 20/10 Q1007 NOSIG

TAF TAF EDDF
Valide du 03 à 06h jusqu'au 04 à 12h UTC


030500Z 0306/0412 07003KT CAVOK
BECMG 0308/0311 25005KT
PROB40
TEMPO 0313/0320 27020G35KT TSRA BKN060CB
BECMG 0318/0320 06004KT
BECMG 0404/0406 20006KT
TEMPO 0404/0412 SHRA BKN025CB
PROB30
TEMPO 0404/0412 TSRA



MET'MAP, la Météo Aéronautique d'un coup d'oeil ! - Copyright ORBIFLY Décembre 2007 - Disclaimer

ORBIFLY MET'MAP TEAM :

Programmation & Développement : Alexandra Zaïnal
Sur une idée originale de : Baudouin d'Aumeries
Assistance à la programmation : Marc-Olivier Méhu
Soutien technique & logistique : Manuel Goepfert

Contact : metmap@orbifly.com




SOURCES & CREDITS :

   NOAA